Souder, Missouri
Current Conditions -  °F | °C
As of 1:53 PM on Wednesday 28 Jan 2015 (Local Time) from KBPK Reporting Station
Clear Clear  
Wind Chill: 61°   Ceiling: Unl
Heat Index: 61°   Visibility: 10mi
Dew Point: 35°   Wind: 12mph
Humidity: 38%   Direction: 170°S
Pressure: 30.04"   Gusts: 20mph
Location:  36.7438°N, 92.5205°W
Report Text: KBPK 281953Z AUTO 17010G17KT 10SM CLR 16/02 A3004 RMK AO2 SLP171 T01610017
Loading
Personal Weather Stations






























Interactive Weather Map New forecast layout! Learn more

10-Day Weather Forecast

Advertisements
Track Severe Weather on mobile